sensor_id;sensor_type;location;lat;lon;timestamp;pressure;altitude;pressure_sealevel;temperature;humidity
52735;BME280;38631;47.572;10.704;2023-05-08T00:00:46;92855.81;;;11.11;100.00
52735;BME280;38631;47.572;10.704;2023-05-08T00:03:12;92861.22;;;11.19;100.00
52735;BME280;38631;47.572;10.704;2023-05-08T00:05:40;92854.81;;;11.20;100.00
52735;BME280;38631;47.572;10.704;2023-05-08T00:08:06;92856.78;;;11.15;100.00
52735;BME280;38631;47.572;10.704;2023-05-08T00:10:31;92849.50;;;11.20;100.00
52735;BME280;38631;47.572;10.704;2023-05-08T00:12:56;92854.03;;;11.20;100.00
52735;BME280;38631;47.572;10.704;2023-05-08T00:15:22;92850.38;;;11.16;100.00
52735;BME280;38631;47.572;10.704;2023-05-08T00:17:47;92848.53;;;11.16;100.00
52735;BME280;38631;47.572;10.704;2023-05-08T00:20:13;92856.13;;;11.09;100.00
52735;BME280;38631;47.572;10.704;2023-05-08T00:22:38;92857.19;;;11.08;100.00
52735;BME280;38631;47.572;10.704;2023-05-08T00:25:04;92852.09;;;10.98;100.00
52735;BME280;38631;47.572;10.704;2023-05-08T00:27:32;92846.22;;;11.01;100.00
52735;BME280;38631;47.572;10.704;2023-05-08T00:29:58;92854.38;;;11.05;100.00
52735;BME280;38631;47.572;10.704;2023-05-08T00:32:24;92847.88;;;10.97;100.00
52735;BME280;38631;47.572;10.704;2023-05-08T00:34:49;92852.59;;;11.00;100.00
52735;BME280;38631;47.572;10.704;2023-05-08T00:37:15;92853.19;;;10.97;100.00
52735;BME280;38631;47.572;10.704;2023-05-08T00:39:40;92852.19;;;11.07;100.00
52735;BME280;38631;47.572;10.704;2023-05-08T00:42:05;92859.31;;;10.97;100.00
52735;BME280;38631;47.572;10.704;2023-05-08T00:44:31;92854.97;;;11.01;100.00
52735;BME280;38631;47.572;10.704;2023-05-08T00:46:56;92856.03;;;11.00;100.00
52735;BME280;38631;47.572;10.704;2023-05-08T00:49:22;92848.16;;;11.09;100.00
52735;BME280;38631;47.572;10.704;2023-05-08T00:51:49;92851.53;;;11.01;100.00
52735;BME280;38631;47.572;10.704;2023-05-08T00:54:17;92852.59;;;11.00;100.00
52735;BME280;38631;47.572;10.704;2023-05-08T00:56:42;92852.00;;;11.03;100.00
52735;BME280;38631;47.572;10.704;2023-05-08T00:59:11;92853.28;;;11.06;100.00
52735;BME280;38631;47.572;10.704;2023-05-08T01:01:38;92849.44;;;10.98;100.00
52735;BME280;38631;47.572;10.704;2023-05-08T01:04:05;92858.97;;;11.13;100.00
52735;BME280;38631;47.572;10.704;2023-05-08T01:06:30;92850.84;;;10.95;100.00
52735;BME280;38631;47.572;10.704;2023-05-08T01:08:56;92852.59;;;11.00;100.00
52735;BME280;38631;47.572;10.704;2023-05-08T01:11:28;92859.59;;;10.96;100.00
52735;BME280;38631;47.572;10.704;2023-05-08T01:21:55;92859.59;;;10.96;100.00
52735;BME280;38631;47.572;10.704;2023-05-08T01:24:34;92860.91;;;10.85;100.00
52735;BME280;38631;47.572;10.704;2023-05-08T01:32:50;92855.31;;;10.86;100.00
52735;BME280;38631;47.572;10.704;2023-05-08T01:38:11;92854.50;;;10.86;100.00
52735;BME280;38631;47.572;10.704;2023-05-08T01:41:17;92852.91;;;10.98;100.00
52735;BME280;38631;47.572;10.704;2023-05-08T01:44:12;92853.47;;;11.09;100.00
52735;BME280;38631;47.572;10.704;2023-05-08T01:46:41;92853.69;;;10.99;100.00
52735;BME280;38631;47.572;10.704;2023-05-08T01:49:11;92854.97;;;11.01;100.00
52735;BME280;38631;47.572;10.704;2023-05-08T01:51:43;92857.53;;;10.93;100.00
52735;BME280;38631;47.572;10.704;2023-05-08T01:54:14;92858.63;;;10.92;100.00
52735;BME280;38631;47.572;10.704;2023-05-08T01:56:42;92859.41;;;10.92;100.00
52735;BME280;38631;47.572;10.704;2023-05-08T01:59:09;92862.66;;;10.89;100.00
52735;BME280;38631;47.572;10.704;2023-05-08T02:01:38;92858.53;;;10.83;100.00
52735;BME280;38631;47.572;10.704;2023-05-08T02:04:05;92862.97;;;10.88;100.00
52735;BME280;38631;47.572;10.704;2023-05-08T02:06:31;92867.78;;;10.86;100.00
52735;BME280;38631;47.572;10.704;2023-05-08T02:08:58;92862.50;;;10.72;100.00
52735;BME280;38631;47.572;10.704;2023-05-08T02:11:24;92862.69;;;10.75;100.00
52735;BME280;38631;47.572;10.704;2023-05-08T02:13:50;92874.69;;;10.87;100.00
52735;BME280;38631;47.572;10.704;2023-05-08T02:16:17;92867.50;;;10.87;100.00
52735;BME280;38631;47.572;10.704;2023-05-08T02:18:51;92868.00;;;10.75;100.00
52735;BME280;38631;47.572;10.704;2023-05-08T02:21:17;92866.13;;;10.76;100.00
52735;BME280;38631;47.572;10.704;2023-05-08T02:23:44;92871.81;;;10.83;100.00
52735;BME280;38631;47.572;10.704;2023-05-08T02:26:14;92868.09;;;10.84;100.00
52735;BME280;38631;47.572;10.704;2023-05-08T02:28:40;92874.47;;;10.83;100.00
52735;BME280;38631;47.572;10.704;2023-05-08T02:31:07;92874.13;;;10.76;100.00
52735;BME280;38631;47.572;10.704;2023-05-08T02:33:33;92864.38;;;10.71;100.00
52735;BME280;38631;47.572;10.704;2023-05-08T02:35:59;92865.53;;;10.79;100.00
52735;BME280;38631;47.572;10.704;2023-05-08T02:38:26;92872.19;;;10.90;100.00
52735;BME280;38631;47.572;10.704;2023-05-08T02:40:55;92873.06;;;10.99;100.00
52735;BME280;38631;47.572;10.704;2023-05-08T02:43:22;92872.19;;;10.90;100.00
52735;BME280;38631;47.572;10.704;2023-05-08T02:46:17;92880.31;;;10.71;100.00
52735;BME280;38631;47.572;10.704;2023-05-08T02:49:00;92871.06;;;10.69;100.00
52735;BME280;38631;47.572;10.704;2023-05-08T02:51:48;92880.09;;;10.81;100.00
52735;BME280;38631;47.572;10.704;2023-05-08T02:54:37;92881.34;;;10.98;100.00
52735;BME280;38631;47.572;10.704;2023-05-08T02:57:12;92875.25;;;10.97;100.00
52735;BME280;38631;47.572;10.704;2023-05-08T02:59:42;92881.56;;;10.88;100.00
52735;BME280;38631;47.572;10.704;2023-05-08T03:02:17;92878.63;;;10.89;100.00
52735;BME280;38631;47.572;10.704;2023-05-08T03:04:52;92874.97;;;10.85;100.00
52735;BME280;38631;47.572;10.704;2023-05-08T03:07:22;92877.94;;;10.84;100.00
52735;BME280;38631;47.572;10.704;2023-05-08T03:09:50;92880.00;;;10.87;100.00
52735;BME280;38631;47.572;10.704;2023-05-08T03:12:23;92867.38;;;10.92;100.00
52735;BME280;38631;47.572;10.704;2023-05-08T03:14:59;92867.66;;;10.91;100.00
52735;BME280;38631;47.572;10.704;2023-05-08T03:17:29;92878.22;;;10.82;100.00
52735;BME280;38631;47.572;10.704;2023-05-08T03:19:59;92871.91;;;10.92;100.00
52735;BME280;38631;47.572;10.704;2023-05-08T03:22:27;92871.59;;;10.93;100.00
52735;BME280;38631;47.572;10.704;2023-05-08T03:24:55;92877.22;;;10.92;100.00
52735;BME280;38631;47.572;10.704;2023-05-08T03:27:22;92867.31;;;10.70;100.00
52735;BME280;38631;47.572;10.704;2023-05-08T03:29:49;92870.97;;;10.60;100.00
52735;BME280;38631;47.572;10.704;2023-05-08T03:32:17;92866.03;;;10.67;100.00
52735;BME280;38631;47.572;10.704;2023-05-08T03:34:43;92871.91;;;10.78;100.00
52735;BME280;38631;47.572;10.704;2023-05-08T03:37:09;92872.72;;;10.78;100.00
52735;BME280;38631;47.572;10.704;2023-05-08T03:39:34;92871.34;;;10.81;100.00
52735;BME280;38631;47.572;10.704;2023-05-08T03:42:00;92869.69;;;10.44;100.00
52735;BME280;38631;47.572;10.704;2023-05-08T03:44:27;92872.44;;;10.52;100.00
52735;BME280;38631;47.572;10.704;2023-05-08T03:46:54;92864.97;;;10.54;100.00
52735;BME280;38631;47.572;10.704;2023-05-08T03:49:22;92868.91;;;10.57;100.00
52735;BME280;38631;47.572;10.704;2023-05-08T03:51:49;92869.56;;;10.63;100.00
52735;BME280;38631;47.572;10.704;2023-05-08T03:54:15;92864.69;;;10.56;100.00
52735;BME280;38631;47.572;10.704;2023-05-08T03:56:40;92871.56;;;10.57;100.00
52735;BME280;38631;47.572;10.704;2023-05-08T03:59:15;92872.84;;;10.59;100.00
52735;BME280;38631;47.572;10.704;2023-05-08T04:01:48;92872.06;;;10.59;100.00
52735;BME280;38631;47.572;10.704;2023-05-08T04:04:22;92875.97;;;10.62;100.00
52735;BME280;38631;47.572;10.704;2023-05-08T04:06:54;92876.38;;;10.55;100.00
52735;BME280;38631;47.572;10.704;2023-05-08T04:09:48;92882.00;;;10.53;100.00
52735;BME280;38631;47.572;10.704;2023-05-08T04:12:45;92881.28;;;10.48;100.00
52735;BME280;38631;47.572;10.704;2023-05-08T04:15:25;92885.41;;;10.40;100.00
52735;BME280;38631;47.572;10.704;2023-05-08T04:17:58;92882.00;;;10.53;100.00
52735;BME280;38631;47.572;10.704;2023-05-08T04:20:25;92896.84;;;10.54;100.00
52735;BME280;38631;47.572;10.704;2023-05-08T04:22:53;92897.94;;;10.53;100.00
52735;BME280;38631;47.572;10.704;2023-05-08T04:25:19;92896.84;;;10.54;100.00
52735;BME280;38631;47.572;10.704;2023-05-08T04:27:45;92899.66;;;10.58;100.00
52735;BME280;38631;47.572;10.704;2023-05-08T04:30:11;92904.19;;;10.57;100.00
52735;BME280;38631;47.572;10.704;2023-05-08T04:32:37;92904.50;;;10.56;100.00
52735;BME280;38631;47.572;10.704;2023-05-08T04:35:04;92903.34;;;10.48;100.00
52735;BME280;38631;47.572;10.704;2023-05-08T04:37:30;92904.91;;;10.49;100.00
52735;BME280;38631;47.572;10.704;2023-05-08T04:39:56;92903.91;;;10.45;100.00
52735;BME280;38631;47.572;10.704;2023-05-08T04:42:22;92919.34;;;10.57;100.00
52735;BME280;38631;47.572;10.704;2023-05-08T04:44:49;92912.94;;;10.58;100.00
52735;BME280;38631;47.572;10.704;2023-05-08T04:47:14;92909.41;;;10.63;100.00
52735;BME280;38631;47.572;10.704;2023-05-08T04:49:40;92910.50;;;10.48;100.00
52735;BME280;38631;47.572;10.704;2023-05-08T04:52:05;92910.88;;;10.55;100.00
52735;BME280;38631;47.572;10.704;2023-05-08T04:54:32;92917.97;;;10.59;100.00
52735;BME280;38631;47.572;10.704;2023-05-08T04:56:57;92916.69;;;10.71;100.00
52735;BME280;38631;47.572;10.704;2023-05-08T04:59:22;92909.09;;;10.78;100.00
52735;BME280;38631;47.572;10.704;2023-05-08T05:01:49;92911.47;;;10.79;100.00
52735;BME280;38631;47.572;10.704;2023-05-08T05:04:15;92915.34;;;10.73;100.00
52735;BME280;38631;47.572;10.704;2023-05-08T05:06:40;92912.88;;;10.77;100.00
52735;BME280;38631;47.572;10.704;2023-05-08T05:09:05;92911.75;;;10.78;100.00
52735;BME280;38631;47.572;10.704;2023-05-08T05:11:31;92915.50;;;10.77;100.00
52735;BME280;38631;47.572;10.704;2023-05-08T05:13:56;92917.69;;;10.61;100.00
52735;BME280;38631;47.572;10.704;2023-05-08T05:16:21;92929.69;;;10.58;100.00
52735;BME280;38631;47.572;10.704;2023-05-08T05:18:47;92915.03;;;10.61;100.00
52735;BME280;38631;47.572;10.704;2023-05-08T05:21:12;92921.81;;;10.67;100.00
52735;BME280;38631;47.572;10.704;2023-05-08T05:23:38;92918.06;;;10.68;100.00
52735;BME280;38631;47.572;10.704;2023-05-08T05:26:03;92929.91;;;10.76;100.00
52735;BME280;38631;47.572;10.704;2023-05-08T05:28:29;92932.22;;;10.77;100.00
52735;BME280;38631;47.572;10.704;2023-05-08T05:30:54;92932.72;;;10.79;100.00
52735;BME280;38631;47.572;10.704;2023-05-08T05:33:20;92932.13;;;10.82;100.00
52735;BME280;38631;47.572;10.704;2023-05-08T05:35:45;92936.84;;;10.86;100.00
52735;BME280;38631;47.572;10.704;2023-05-08T05:38:10;92937.25;;;10.79;100.00
52735;BME280;38631;47.572;10.704;2023-05-08T05:40:36;92930.34;;;10.78;100.00
52735;BME280;38631;47.572;10.704;2023-05-08T05:43:01;92933.22;;;10.81;100.00
52735;BME280;38631;47.572;10.704;2023-05-08T05:45:26;92928.00;;;10.90;100.00
52735;BME280;38631;47.572;10.704;2023-05-08T05:47:52;92939.72;;;10.89;100.00
52735;BME280;38631;47.572;10.704;2023-05-08T05:50:18;92943.06;;;10.81;100.00
52735;BME280;38631;47.572;10.704;2023-05-08T05:52:45;92943.53;;;10.83;100.00
52735;BME280;38631;47.572;10.704;2023-05-08T05:55:11;92947.88;;;10.79;100.00
52735;BME280;38631;47.572;10.704;2023-05-08T05:57:36;92943.06;;;10.81;100.00
52735;BME280;38631;47.572;10.704;2023-05-08T06:00:03;92944.13;;;10.80;100.00
52735;BME280;38631;47.572;10.704;2023-05-08T06:02:29;92944.84;;;10.72;100.00
52735;BME280;38631;47.572;10.704;2023-05-08T06:04:55;92943.94;;;10.63;100.00
52735;BME280;38631;47.572;10.704;2023-05-08T06:07:21;92945.09;;;10.43;100.00
52735;BME280;38631;47.572;10.704;2023-05-08T06:09:46;92940.50;;;10.48;100.00
52735;BME280;38631;47.572;10.704;2023-05-08T06:12:12;92947.78;;;10.56;100.00
52735;BME280;38631;47.572;10.704;2023-05-08T06:14:37;92940.59;;;10.57;100.00
52735;BME280;38631;47.572;10.704;2023-05-08T06:17:02;92946.59;;;10.63;100.00
52735;BME280;38631;47.572;10.704;2023-05-08T06:19:28;92948.88;;;10.69;100.00
52735;BME280;38631;47.572;10.704;2023-05-08T06:21:53;92948.94;;;10.78;100.00
52735;BME280;38631;47.572;10.704;2023-05-08T06:24:19;92948.78;;;10.74;100.00
52735;BME280;38631;47.572;10.704;2023-05-08T06:26:44;92951.63;;;10.78;100.00
52735;BME280;38631;47.572;10.704;2023-05-08T06:29:11;92939.81;;;10.84;100.00
52735;BME280;38631;47.572;10.704;2023-05-08T06:31:36;92947.50;;;10.72;100.00
52735;BME280;38631;47.572;10.704;2023-05-08T06:34:02;92950.22;;;10.80;100.00
52735;BME280;38631;47.572;10.704;2023-05-08T06:36:27;92954.97;;;10.84;100.00
52735;BME280;38631;47.572;10.704;2023-05-08T06:38:52;92955.16;;;10.87;100.00
52735;BME280;38631;47.572;10.704;2023-05-08T06:41:18;92951.91;;;10.90;100.00
52735;BME280;38631;47.572;10.704;2023-05-08T06:43:43;92961.34;;;11.10;100.00
52735;BME280;38631;47.572;10.704;2023-05-08T06:46:08;92961.75;;;10.90;100.00
52735;BME280;38631;47.572;10.704;2023-05-08T06:48:34;92952.31;;;10.97;100.00
52735;BME280;38631;47.572;10.704;2023-05-08T06:50:59;92957.78;;;11.15;100.00
52735;BME280;38631;47.572;10.704;2023-05-08T06:53:26;92953.25;;;11.29;100.00
52735;BME280;38631;47.572;10.704;2023-05-08T06:55:51;92954.81;;;11.30;100.00
52735;BME280;38631;47.572;10.704;2023-05-08T06:58:17;92957.06;;;11.37;100.00
52735;BME280;38631;47.572;10.704;2023-05-08T07:00:42;92954.72;;;11.35;100.00
52735;BME280;38631;47.572;10.704;2023-05-08T07:03:07;92959.53;;;11.33;100.00
52735;BME280;38631;47.572;10.704;2023-05-08T07:05:33;92951.09;;;11.31;100.00
52735;BME280;38631;47.572;10.704;2023-05-08T07:07:58;92958.25;;;11.44;100.00
52735;BME280;38631;47.572;10.704;2023-05-08T07:10:24;92955.97;;;11.38;100.00
52735;BME280;38631;47.572;10.704;2023-05-08T07:12:49;92949.50;;;11.30;100.00
52735;BME280;38631;47.572;10.704;2023-05-08T07:15:15;92957.03;;;11.51;100.00
52735;BME280;38631;47.572;10.704;2023-05-08T07:17:40;92959.50;;;11.47;100.00
52735;BME280;38631;47.572;10.704;2023-05-08T07:20:07;92952.41;;;11.56;100.00
52735;BME280;38631;47.572;10.704;2023-05-08T07:22:33;92949.31;;;11.63;100.00
52735;BME280;38631;47.572;10.704;2023-05-08T07:24:58;92954.25;;;11.56;100.00
52735;BME280;38631;47.572;10.704;2023-05-08T07:27:24;92959.94;;;11.63;100.00
52735;BME280;38631;47.572;10.704;2023-05-08T07:29:49;92955.41;;;11.63;100.00
52735;BME280;38631;47.572;10.704;2023-05-08T07:32:15;92953.75;;;11.67;100.00
52735;BME280;38631;47.572;10.704;2023-05-08T07:34:40;92959.22;;;11.71;100.00
52735;BME280;38631;47.572;10.704;2023-05-08T07:37:06;92969.66;;;11.81;100.00
52735;BME280;38631;47.572;10.704;2023-05-08T07:39:32;92961.31;;;11.74;100.00
52735;BME280;38631;47.572;10.704;2023-05-08T07:41:57;92955.66;;;11.76;100.00
52735;BME280;38631;47.572;10.704;2023-05-08T07:44:24;92959.81;;;11.82;100.00
52735;BME280;38631;47.572;10.704;2023-05-08T07:46:49;92961.06;;;11.84;100.00
52735;BME280;38631;47.572;10.704;2023-05-08T07:49:15;92953.94;;;11.94;100.00
52735;BME280;38631;47.572;10.704;2023-05-08T07:51:40;92971.75;;;12.07;100.00
52735;BME280;38631;47.572;10.704;2023-05-08T07:54:06;92956.69;;;12.02;100.00
52735;BME280;38631;47.572;10.704;2023-05-08T07:56:32;92959.34;;;12.02;100.00
52735;BME280;38631;47.572;10.704;2023-05-08T07:59:00;92967.25;;;12.16;100.00
52735;BME280;38631;47.572;10.704;2023-05-08T08:01:29;92957.72;;;12.15;100.00
52735;BME280;38631;47.572;10.704;2023-05-08T08:03:54;92965.34;;;12.08;100.00
52735;BME280;38631;47.572;10.704;2023-05-08T08:06:21;92954.88;;;12.12;100.00
52735;BME280;38631;47.572;10.704;2023-05-08T08:08:46;92951.16;;;12.21;100.00
52735;BME280;38631;47.572;10.704;2023-05-08T08:11:11;92964.81;;;12.28;100.00
52735;BME280;38631;47.572;10.704;2023-05-08T08:13:37;92948.69;;;12.25;100.00
52735;BME280;38631;47.572;10.704;2023-05-08T08:16:02;92945.25;;;12.24;100.00
52735;BME280;38631;47.572;10.704;2023-05-08T08:18:28;92958.44;;;12.29;100.00
52735;BME280;38631;47.572;10.704;2023-05-08T08:20:54;92956.38;;;12.58;100.00
52735;BME280;38631;47.572;10.704;2023-05-08T08:23:20;92949.06;;;12.41;100.00
52735;BME280;38631;47.572;10.704;2023-05-08T08:25:45;92958.75;;;12.59;100.00
52735;BME280;38631;47.572;10.704;2023-05-08T08:28:10;92950.78;;;12.68;100.00
52735;BME280;38631;47.572;10.704;2023-05-08T08:30:36;92953.28;;;12.64;100.00
52735;BME280;38631;47.572;10.704;2023-05-08T08:33:01;92952.63;;;12.59;100.00
52735;BME280;38631;47.572;10.704;2023-05-08T08:35:28;92961.94;;;12.79;100.00
52735;BME280;38631;47.572;10.704;2023-05-08T08:37:57;92958.81;;;12.77;100.00
52735;BME280;38631;47.572;10.704;2023-05-08T08:40:23;92956.66;;;12.87;100.00
52735;BME280;38631;47.572;10.704;2023-05-08T08:42:48;92950.72;;;12.90;100.00
52735;BME280;38631;47.572;10.704;2023-05-08T08:45:14;92948.47;;;12.75;100.00
52735;BME280;38631;47.572;10.704;2023-05-08T08:47:43;92937.19;;;12.78;100.00
52735;BME280;38631;47.572;10.704;2023-05-08T08:50:09;92947.53;;;12.80;100.00
52735;BME280;38631;47.572;10.704;2023-05-08T08:52:42;92948.94;;;12.77;100.00
52735;BME280;38631;47.572;10.704;2023-05-08T08:55:14;92948.16;;;12.77;100.00
52735;BME280;38631;47.572;10.704;2023-05-08T08:58:03;92949.16;;;12.58;100.00
52735;BME280;38631;47.572;10.704;2023-05-08T09:00:30;92944.97;;;12.66;100.00
52735;BME280;38631;47.572;10.704;2023-05-08T09:02:56;92946.56;;;12.75;100.00
52735;BME280;38631;47.572;10.704;2023-05-08T09:05:23;92944.75;;;12.85;100.00
52735;BME280;38631;47.572;10.704;2023-05-08T09:07:53;92948.03;;;12.82;100.00
52735;BME280;38631;47.572;10.704;2023-05-08T09:10:18;92944.91;;;12.88;100.00
52735;BME280;38631;47.572;10.704;2023-05-08T09:12:44;92946.63;;;12.84;100.00
52735;BME280;38631;47.572;10.704;2023-05-08T09:15:09;92946.91;;;12.83;100.00
52735;BME280;38631;47.572;10.704;2023-05-08T09:17:35;92946.16;;;12.91;100.00
52735;BME280;38631;47.572;10.704;2023-05-08T09:20:02;92943.69;;;13.03;100.00
52735;BME280;38631;47.572;10.704;2023-05-08T09:22:27;92942.53;;;13.27;100.00
52735;BME280;38631;47.572;10.704;2023-05-08T09:27:21;92940.91;;;13.26;100.00
52735;BME280;38631;47.572;10.704;2023-05-08T09:29:58;92940.03;;;13.39;100.00
52735;BME280;38631;47.572;10.704;2023-05-08T09:32:24;92949.44;;;13.36;100.00
52735;BME280;38631;47.572;10.704;2023-05-08T09:34:52;92939.88;;;13.27;100.00
52735;BME280;38631;47.572;10.704;2023-05-08T09:37:18;92940.16;;;13.34;100.00
52735;BME280;38631;47.572;10.704;2023-05-08T09:39:44;92932.03;;;13.30;100.00
52735;BME280;38631;47.572;10.704;2023-05-08T09:42:13;92943.00;;;13.29;100.00
52735;BME280;38631;47.572;10.704;2023-05-08T09:47:30;92940.31;;;13.29;100.00
52735;BME280;38631;47.572;10.704;2023-05-08T09:50:03;92948.81;;;13.31;100.00
52735;BME280;38631;47.572;10.704;2023-05-08T09:52:30;92953.06;;;13.32;100.00
52735;BME280;38631;47.572;10.704;2023-05-08T09:55:07;92950.53;;;13.44;100.00
52735;BME280;38631;47.572;10.704;2023-05-08T09:57:34;92949.28;;;13.33;100.00
52735;BME280;38631;47.572;10.704;2023-05-08T10:00:04;92950.69;;;13.30;95.93
52735;BME280;38631;47.572;10.704;2023-05-08T10:02:31;92954.59;;;13.24;96.03
52735;BME280;38631;47.572;10.704;2023-05-08T10:04:57;92949.28;;;13.33;98.54
52735;BME280;38631;47.572;10.704;2023-05-08T10:07:35;92944.28;;;13.40;100.00
52735;BME280;38631;47.572;10.704;2023-05-08T10:10:05;92944.09;;;13.28;100.00
52735;BME280;38631;47.572;10.704;2023-05-08T10:12:31;92939.72;;;13.32;99.66
52735;BME280;38631;47.572;10.704;2023-05-08T10:14:58;92940.50;;;13.41;100.00
52735;BME280;38631;47.572;10.704;2023-05-08T10:17:37;92945.50;;;13.34;100.00
52735;BME280;38631;47.572;10.704;2023-05-08T10:20:06;92940.50;;;13.41;98.91
52735;BME280;38631;47.572;10.704;2023-05-08T10:22:35;92935.78;;;13.38;98.10
52735;BME280;38631;47.572;10.704;2023-05-08T10:25:01;92946.78;;;13.45;98.44
52735;BME280;38631;47.572;10.704;2023-05-08T10:27:38;92946.63;;;13.50;97.77
52735;BME280;38631;47.572;10.704;2023-05-08T10:30:08;92939.56;;;13.46;97.15
52735;BME280;38631;47.572;10.704;2023-05-08T10:32:42;92937.38;;;13.56;99.17
52735;BME280;38631;47.572;10.704;2023-05-08T10:35:10;92944.91;;;13.37;100.00
52735;BME280;38631;47.572;10.704;2023-05-08T10:37:36;92938.88;;;13.23;100.00
52735;BME280;38631;47.572;10.704;2023-05-08T10:40:03;92948.09;;;13.16;98.12
52735;BME280;38631;47.572;10.704;2023-05-08T10:42:29;92949.53;;;13.23;97.30
52735;BME280;38631;47.572;10.704;2023-05-08T10:44:55;92945.66;;;13.29;99.31
52735;BME280;38631;47.572;10.704;2023-05-08T10:47:29;92943.31;;;13.36;100.00
52735;BME280;38631;47.572;10.704;2023-05-08T10:55:37;92939.38;;;13.25;100.00
52735;BME280;38631;47.572;10.704;2023-05-08T11:03:25;92939.66;;;13.14;100.00
52735;BME280;38631;47.572;10.704;2023-05-08T11:05:53;92935.41;;;13.13;100.00
52735;BME280;38631;47.572;10.704;2023-05-08T11:08:29;92936.66;;;13.16;100.00
52735;BME280;38631;47.572;10.704;2023-05-08T11:13:39;92938.63;;;12.84;100.00
52735;BME280;38631;47.572;10.704;2023-05-08T11:16:06;92932.97;;;12.86;100.00
52735;BME280;38631;47.572;10.704;2023-05-08T11:18:34;92931.91;;;12.87;100.00
52735;BME280;38631;47.572;10.704;2023-05-08T11:21:01;92930.22;;;13.08;100.00
52735;BME280;38631;47.572;10.704;2023-05-08T11:23:36;92921.19;;;13.27;100.00
52735;BME280;38631;47.572;10.704;2023-05-08T11:26:11;92921.66;;;13.29;100.00
52735;BME280;38631;47.572;10.704;2023-05-08T11:28:38;92926.69;;;13.39;100.00
52735;BME280;38631;47.572;10.704;2023-05-08T11:31:06;92918.38;;;13.40;100.00
52735;BME280;38631;47.572;10.704;2023-05-08T11:33:35;92916.50;;;13.41;100.00
52735;BME280;38631;47.572;10.704;2023-05-08T11:36:13;92924.03;;;13.30;100.00
52735;BME280;38631;47.572;10.704;2023-05-08T11:38:39;92916.03;;;13.30;100.00
52735;BME280;38631;47.572;10.704;2023-05-08T11:41:07;92920.13;;;13.45;100.00
52735;BME280;38631;47.572;10.704;2023-05-08T11:48:57;92915.09;;;13.52;100.00
52735;BME280;38631;47.572;10.704;2023-05-08T11:51:29;92927.78;;;13.47;100.00
52735;BME280;38631;47.572;10.704;2023-05-08T11:53:55;92920.59;;;13.56;100.00
52735;BME280;38631;47.572;10.704;2023-05-08T11:56:21;92916.03;;;13.56;100.00
52735;BME280;38631;47.572;10.704;2023-05-08T11:58:47;92917.44;;;13.45;100.00
52735;BME280;38631;47.572;10.704;2023-05-08T12:01:18;92919.66;;;13.52;100.00
52735;BME280;38631;47.572;10.704;2023-05-08T12:03:44;92916.50;;;13.50;100.00
52735;BME280;38631;47.572;10.704;2023-05-08T12:06:09;92921.53;;;13.69;100.00
52735;BME280;38631;47.572;10.704;2023-05-08T12:08:37;92920.09;;;13.54;100.00
52735;BME280;38631;47.572;10.704;2023-05-08T12:11:03;92923.88;;;13.53;100.00
52735;BME280;38631;47.572;10.704;2023-05-08T12:13:29;92917.94;;;13.65;100.00
52735;BME280;38631;47.572;10.704;2023-05-08T12:15:57;92920.28;;;13.75;100.00
52735;BME280;38631;47.572;10.704;2023-05-08T12:18:24;92924.19;;;13.51;100.00
52735;BME280;38631;47.572;10.704;2023-05-08T12:20:59;92917.47;;;13.63;100.00
52735;BME280;38631;47.572;10.704;2023-05-08T12:23:25;92922.03;;;13.79;100.00
52735;BME280;38631;47.572;10.704;2023-05-08T12:25:52;92922.63;;;13.76;100.00
52735;BME280;38631;47.572;10.704;2023-05-08T12:28:18;92924.34;;;13.81;100.00
52735;BME280;38631;47.572;10.704;2023-05-08T12:30:43;92922.97;;;13.75;100.00
52735;BME280;38631;47.572;10.704;2023-05-08T12:33:09;92926.56;;;13.88;100.00
52735;BME280;38631;47.572;10.704;2023-05-08T12:35:36;92934.09;;;13.86;100.00
52735;BME280;38631;47.572;10.704;2023-05-08T12:38:05;92929.84;;;13.76;100.00
52735;BME280;38631;47.572;10.704;2023-05-08T12:40:40;92928.28;;;13.92;100.00
52735;BME280;38631;47.572;10.704;2023-05-08T12:43:07;92932.19;;;13.69;100.00
52735;BME280;38631;47.572;10.704;2023-05-08T12:45:36;92927.94;;;13.42;100.00
52735;BME280;38631;47.572;10.704;2023-05-08T12:48:05;92923.59;;;13.54;100.00
52735;BME280;38631;47.572;10.704;2023-05-08T12:50:35;92919.50;;;13.57;100.00
52735;BME280;38631;47.572;10.704;2023-05-08T12:53:09;92931.75;;;13.49;100.00
52735;BME280;38631;47.572;10.704;2023-05-08T12:55:36;92925.00;;;13.52;100.00
52735;BME280;38631;47.572;10.704;2023-05-08T12:58:04;92927.03;;;13.72;100.00
52735;BME280;38631;47.572;10.704;2023-05-08T13:00:37;92924.22;;;13.60;100.00
52735;BME280;38631;47.572;10.704;2023-05-08T13:03:04;92920.59;;;13.65;100.00
52735;BME280;38631;47.572;10.704;2023-05-08T13:05:29;92922.63;;;13.76;100.00
52735;BME280;38631;47.572;10.704;2023-05-08T13:08:02;92924.19;;;13.69;100.00
52735;BME280;38631;47.572;10.704;2023-05-08T13:10:53;92922.31;;;13.60;100.00
52735;BME280;38631;47.572;10.704;2023-05-08T13:13:20;92918.06;;;13.68;100.00
52735;BME280;38631;47.572;10.704;2023-05-08T13:15:47;92914.00;;;13.71;100.00
52735;BME280;38631;47.572;10.704;2023-05-08T13:18:13;92909.59;;;13.57;100.00
52735;BME280;38631;47.572;10.704;2023-05-08T13:20:39;92918.72;;;13.65;100.00
52735;BME280;38631;47.572;10.704;2023-05-08T13:23:05;92907.88;;;13.61;100.00
52735;BME280;38631;47.572;10.704;2023-05-08T13:25:31;92916.34;;;13.55;100.00